Time;durP1;ratioP1;P1;durP2;ratioP2;P2;SDS_P1;SDS_P2;PMS_P1;PMS_P2;Temp;Humidity;BMP_temperature;BMP_pressure;BME280_temperature;BME280_humidity;BME280_pressure;Samples;Min_cycle;Max_cycle;Signal;HPM_P1;HPM_P2
2022/08/18 00:02:21;;;;;;;8.07;6.53;;;17.90;97.10;;;;;;5031889;28;20376;-74
2022/08/18 00:04:47;;;;;;;9.95;6.53;;;17.90;97.00;;;;;;5034473;28;20049;-74
2022/08/18 00:07:16;;;;;;;9.02;6.60;;;17.90;97.00;;;;;;5034008;28;20060;-74
2022/08/18 00:09:42;;;;;;;10.75;7.20;;;17.80;96.90;;;;;;5043309;28;20021;-74
2022/08/18 00:12:18;;;;;;;10.25;6.65;;;17.80;96.90;;;;;;5034579;28;20075;-74
2022/08/18 00:14:45;;;;;;;9.32;6.72;;;17.70;96.80;;;;;;5031095;28;20030;-74
2022/08/18 00:17:11;;;;;;;7.97;6.70;;;17.70;96.80;;;;;;5032517;28;20464;-74
2022/08/18 00:19:36;;;;;;;9.68;7.45;;;17.60;96.90;;;;;;5034270;28;20065;-74
2022/08/18 00:22:02;;;;;;;9.88;7.93;;;17.50;96.90;;;;;;5033664;28;20072;-74
2022/08/18 00:24:27;;;;;;;13.30;8.23;;;17.50;97.00;;;;;;5034372;28;20025;-74
2022/08/18 00:26:53;;;;;;;9.73;7.82;;;17.50;97.10;;;;;;5029450;28;20360;-74
2022/08/18 00:29:19;;;;;;;10.18;7.78;;;17.50;97.20;;;;;;5034009;28;20026;-74
2022/08/18 00:31:45;;;;;;;12.18;8.32;;;17.50;97.20;;;;;;5034313;28;20098;-74
2022/08/18 00:34:10;;;;;;;10.40;8.45;;;17.50;97.30;;;;;;5031285;28;20560;-74
2022/08/18 00:36:36;;;;;;;11.68;9.15;;;17.50;97.40;;;;;;5014131;28;20026;-74
2022/08/18 00:39:02;;;;;;;12.00;9.15;;;17.40;97.40;;;;;;5013517;28;20050;-74
2022/08/18 00:41:29;;;;;;;11.75;10.23;;;17.30;97.40;;;;;;5045207;28;20116;-74
2022/08/18 00:43:57;;;;;;;13.43;10.05;;;17.30;97.40;;;;;;5033842;28;20417;-74
2022/08/18 00:46:26;;;;;;;12.90;10.10;;;17.30;97.50;;;;;;5029964;28;20029;-74
2022/08/18 00:48:52;;;;;;;11.52;9.32;;;17.30;97.60;;;;;;5031194;28;20022;-74
2022/08/18 00:51:29;;;;;;;13.32;9.15;;;17.30;97.50;;;;;;5036965;28;20028;-74
2022/08/18 00:54:05;;;;;;;11.60;9.50;;;17.30;97.50;;;;;;5033280;28;20034;-74
2022/08/18 00:56:40;;;;;;;13.65;10.15;;;17.30;97.50;;;;;;5047122;28;20468;-74
2022/08/18 00:59:27;;;;;;;11.70;9.40;;;17.30;97.60;;;;;;5029680;28;20052;-74
2022/08/18 01:01:56;;;;;;;14.00;9.88;;;17.30;97.70;;;;;;5031616;28;20410;-74
2022/08/18 01:04:38;;;;;;;13.38;9.80;;;17.20;97.60;;;;;;5031460;28;20492;-74
2022/08/18 01:07:12;;;;;;;12.70;9.80;;;17.20;97.50;;;;;;5031160;28;20021;-74
2022/08/18 01:09:38;;;;;;;13.65;9.52;;;17.20;97.50;;;;;;5035693;28;20040;-74
2022/08/18 01:12:04;;;;;;;12.32;10.10;;;17.20;97.60;;;;;;5025497;28;20029;-74
2022/08/18 01:14:29;;;;;;;12.55;9.98;;;17.20;97.60;;;;;;5022013;28;20029;-74
2022/08/18 01:22:33;;;;;;;15.10;10.38;;;17.10;97.70;;;;;;5030831;28;20020;-74
2022/08/18 01:27:44;;;;;;;14.27;9.68;;;17.00;97.80;;;;;;5037618;28;20056;-74
2022/08/18 01:30:14;;;;;;;14.00;10.63;;;17.00;97.80;;;;;;5029987;28;20453;-74
2022/08/18 01:32:40;;;;;;;14.75;10.82;;;17.10;97.90;;;;;;5040839;28;20360;-74
2022/08/18 01:35:09;;;;;;;13.90;10.10;;;17.00;97.80;;;;;;5042442;28;20021;-74
2022/08/18 01:37:36;;;;;;;14.70;10.13;;;17.10;97.90;;;;;;5029000;28;20065;-74
2022/08/18 01:40:05;;;;;;;14.48;11.35;;;17.10;97.90;;;;;;5028726;28;20104;-74
2022/08/18 01:42:31;;;;;;;13.43;11.02;;;17.10;97.90;;;;;;5029128;28;20368;-74
2022/08/18 01:44:56;;;;;;;13.55;10.30;;;17.20;97.90;;;;;;5016345;28;20048;-74
2022/08/18 01:47:22;;;;;;;14.63;10.40;;;17.20;97.90;;;;;;5044612;28;20463;-74
2022/08/18 01:49:48;;;;;;;12.45;9.73;;;17.10;97.70;;;;;;5036247;28;20029;-74
2022/08/18 01:52:19;;;;;;;13.30;10.98;;;17.10;97.70;;;;;;5023665;28;20052;-74
2022/08/18 01:54:45;;;;;;;13.30;10.15;;;17.10;97.70;;;;;;5012771;28;20029;-74
2022/08/18 01:57:14;;;;;;;15.80;11.02;;;17.20;97.80;;;;;;5013440;28;20053;-74
2022/08/18 01:59:41;;;;;;;13.85;10.35;;;17.20;97.90;;;;;;5018660;28;20038;-74
2022/08/18 02:02:08;;;;;;;18.15;10.80;;;17.20;98.00;;;;;;5036731;28;20017;-74
2022/08/18 02:04:35;;;;;;;14.27;11.13;;;17.20;98.10;;;;;;5032426;28;20030;-74
2022/08/18 02:07:01;;;;;;;15.00;10.38;;;17.10;98.00;;;;;;5032419;28;20032;-74
2022/08/18 02:09:27;;;;;;;13.98;10.88;;;17.10;98.10;;;;;;5027268;28;20508;-74
2022/08/18 02:11:53;;;;;;;13.10;9.60;;;17.00;98.10;;;;;;5031249;28;20167;-74
2022/08/18 02:14:19;;;;;;;11.57;9.45;;;17.00;98.20;;;;;;5016350;28;20084;-73
2022/08/18 02:16:44;;;;;;;13.38;9.63;;;17.00;98.10;;;;;;5022697;28;20473;-74
2022/08/18 02:19:11;;;;;;;16.60;10.70;;;16.90;98.10;;;;;;5030339;28;20337;-73
2022/08/18 02:21:36;;;;;;;14.65;10.48;;;16.90;98.10;;;;;;5030083;28;20032;-71
2022/08/18 02:24:02;;;;;;;19.73;10.20;;;16.90;98.00;;;;;;5030252;28;20393;-73
2022/08/18 02:26:28;;;;;;;12.35;9.80;;;16.90;98.10;;;;;;5033877;28;20029;-73
2022/08/18 02:28:54;;;;;;;11.90;10.05;;;16.80;98.00;;;;;;5052392;28;20025;-73
2022/08/18 02:31:22;;;;;;;16.40;10.30;;;16.80;98.10;;;;;;5051849;28;20020;-74
2022/08/18 02:33:48;;;;;;;12.65;9.65;;;16.80;98.10;;;;;;5052303;28;20108;-74
2022/08/18 02:36:14;;;;;;;15.20;10.68;;;16.80;98.20;;;;;;5051980;28;20079;-74
2022/08/18 02:38:41;;;;;;;14.18;9.98;;;16.70;98.20;;;;;;5052139;28;20045;-74
2022/08/18 02:41:12;;;;;;;13.35;11.27;;;16.60;98.10;;;;;;5042297;28;20053;-74
2022/08/18 02:43:38;;;;;;;14.98;10.45;;;16.60;98.30;;;;;;5040266;28;20026;-73
2022/08/18 02:46:05;;;;;;;12.95;10.15;;;16.60;98.20;;;;;;5031631;28;20047;-74
2022/08/18 02:48:34;;;;;;;16.60;10.10;;;16.60;98.40;;;;;;5023794;28;20175;-74
2022/08/18 02:51:19;;;;;;;14.25;10.85;;;16.60;98.40;;;;;;5027804;28;20041;-73
2022/08/18 02:53:46;;;;;;;12.20;9.43;;;16.60;98.50;;;;;;5025802;28;20037;-74
2022/08/18 02:56:26;;;;;;;12.32;9.77;;;16.50;98.40;;;;;;5032076;28;20368;-74
2022/08/18 02:59:13;;;;;;;14.70;10.50;;;16.50;98.50;;;;;;5035333;28;20100;-73
2022/08/18 03:01:42;;;;;;;14.95;9.85;;;16.40;98.50;;;;;;5022341;28;20175;-74
2022/08/18 03:04:09;;;;;;;13.38;10.10;;;16.40;98.60;;;;;;5026813;28;20102;-75
2022/08/18 03:06:37;;;;;;;14.25;10.52;;;16.40;98.50;;;;;;5022231;28;20338;-74
2022/08/18 03:09:04;;;;;;;14.32;10.90;;;16.40;98.60;;;;;;5026275;28;20022;-74
2022/08/18 03:11:30;;;;;;;16.20;12.35;;;16.40;98.60;;;;;;5029008;28;20036;-74
2022/08/18 03:13:56;;;;;;;20.08;12.80;;;16.40;98.70;;;;;;5028161;28;20021;-75
2022/08/18 03:16:23;;;;;;;18.55;12.68;;;16.40;98.70;;;;;;5032586;28;20090;-74
2022/08/18 03:18:50;;;;;;;18.02;14.13;;;16.30;98.70;;;;;;5040651;28;20029;-74
2022/08/18 03:21:20;;;;;;;17.85;13.43;;;16.40;98.70;;;;;;5029708;28;20029;-74
2022/08/18 03:23:47;;;;;;;18.20;13.93;;;16.40;98.80;;;;;;5023806;28;20162;-74
2022/08/18 03:26:15;;;;;;;18.98;14.45;;;16.40;98.80;;;;;;5036260;28;20539;-74
2022/08/18 03:28:43;;;;;;;22.48;15.48;;;16.40;98.80;;;;;;5031840;28;20037;-74
2022/08/18 03:31:09;;;;;;;24.73;17.45;;;16.40;98.90;;;;;;5040651;28;20023;-75
2022/08/18 03:33:35;;;;;;;24.40;17.08;;;16.40;98.90;;;;;;5036686;28;20033;-74
2022/08/18 03:36:11;;;;;;;27.85;17.85;;;16.50;99.00;;;;;;5032335;28;20040;-74
2022/08/18 03:38:38;;;;;;;26.23;19.13;;;16.40;98.80;;;;;;5033750;28;20405;-74
2022/08/18 03:41:07;;;;;;;26.52;18.83;;;16.50;98.90;;;;;;5028037;28;20139;-74
2022/08/18 03:43:32;;;;;;;32.88;22.08;;;16.40;98.90;;;;;;5013517;28;20448;-74
2022/08/18 03:46:08;;;;;;;31.98;22.40;;;16.40;99.00;;;;;;5030402;28;20061;-75
2022/08/18 03:48:34;;;;;;;36.78;23.30;;;16.50;99.10;;;;;;5039722;28;20038;-74
2022/08/18 03:51:08;;;;;;;36.47;22.42;;;16.50;99.10;;;;;;5037843;28;20033;-75
2022/08/18 03:53:35;;;;;;;34.80;24.17;;;16.50;99.10;;;;;;5036277;28;20038;-75
2022/08/18 03:56:05;;;;;;;36.30;24.30;;;16.50;99.10;;;;;;5019069;28;20084;-75
2022/08/18 03:58:30;;;;;;;33.88;23.80;;;16.50;99.10;;;;;;5043632;28;20116;-75
2022/08/18 04:00:56;;;;;;;37.60;24.70;;;16.50;99.10;;;;;;5018600;28;20421;-74
2022/08/18 04:03:21;;;;;;;34.08;25.20;;;16.50;99.10;;;;;;5037119;28;20037;-74
2022/08/18 04:05:47;;;;;;;37.55;26.50;;;16.50;99.10;;;;;;5023519;28;20037;-74
2022/08/18 04:08:12;;;;;;;37.40;25.08;;;16.40;99.10;;;;;;5034387;28;20091;-74
2022/08/18 04:10:38;;;;;;;39.72;25.05;;;16.50;99.20;;;;;;5034748;28;20497;-74
2022/08/18 04:13:06;;;;;;;37.85;25.25;;;16.50;99.20;;;;;;5039585;28;20083;-75
2022/08/18 04:15:32;;;;;;;38.63;25.20;;;16.40;99.20;;;;;;5033514;28;20029;-74
2022/08/18 04:18:02;;;;;;;37.88;25.52;;;16.50;99.20;;;;;;5031771;28;20509;-72
2022/08/18 04:20:28;;;;;;;41.30;27.02;;;16.40;99.20;;;;;;5035949;28;20071;-71
2022/08/18 04:22:54;;;;;;;40.25;27.27;;;16.40;99.20;;;;;;5024404;28;20133;-72
2022/08/18 04:25:20;;;;;;;39.17;25.27;;;16.40;99.20;;;;;;5030761;28;20037;-72
2022/08/18 04:27:46;;;;;;;40.67;27.08;;;16.40;99.20;;;;;;5037705;28;20029;-74
2022/08/18 04:30:11;;;;;;;43.40;29.40;;;16.50;99.30;;;;;;5029735;28;20099;-73
2022/08/18 04:32:38;;;;;;;41.25;27.08;;;16.60;99.40;;;;;;5033393;28;20030;-73
2022/08/18 04:35:05;;;;;;;46.22;29.55;;;16.60;99.40;;;;;;5028431;28;20053;-73
2022/08/18 04:37:31;;;;;;;56.65;31.08;;;16.80;99.40;;;;;;5036688;28;20061;-74
2022/08/18 04:39:58;;;;;;;53.17;30.67;;;16.80;99.30;;;;;;5033074;28;20068;-73
2022/08/18 04:42:27;;;;;;;55.40;30.65;;;16.80;99.30;;;;;;5033297;28;20025;-73
2022/08/18 04:44:52;;;;;;;48.33;29.95;;;16.90;99.30;;;;;;5044075;28;20032;-73
2022/08/18 04:47:19;;;;;;;47.17;29.48;;;16.90;99.20;;;;;;5036873;28;20060;-73
2022/08/18 04:49:44;;;;;;;48.70;29.00;;;17.00;99.20;;;;;;5023490;28;20021;-73
2022/08/18 04:54:54;;;;;;;46.72;27.38;;;17.00;99.20;;;;;;5037882;28;20369;-72
2022/08/18 04:57:21;;;;;;;47.17;26.33;;;17.00;99.20;;;;;;5033751;28;20021;-72
2022/08/18 04:59:49;;;;;;;45.15;25.85;;;17.00;99.20;;;;;;5040046;28;20555;-73
2022/08/18 05:02:20;;;;;;;46.90;26.98;;;17.00;99.00;;;;;;5041350;28;20061;-72
2022/08/18 05:04:46;;;;;;;55.05;27.60;;;17.00;99.10;;;;;;5031273;28;20029;-72
2022/08/18 05:07:15;;;;;;;46.58;28.63;;;17.00;99.20;;;;;;5031785;28;20025;-72
2022/08/18 05:09:41;;;;;;;60.53;28.48;;;17.10;99.20;;;;;;5016257;28;20373;-74
2022/08/18 05:12:11;;;;;;;55.80;29.63;;;17.20;99.30;;;;;;5028965;28;20087;-74
2022/08/18 05:14:37;;;;;;;56.72;30.38;;;17.10;99.20;;;;;;5027031;28;20018;-73
2022/08/18 05:17:03;;;;;;;61.47;29.80;;;17.20;99.10;;;;;;5030556;28;20025;-74
2022/08/18 05:19:29;;;;;;;53.63;29.02;;;17.20;99.20;;;;;;5044985;28;20035;-73
2022/08/18 05:21:57;;;;;;;56.58;30.45;;;17.20;99.20;;;;;;5024858;28;20037;-73
2022/08/18 05:24:24;;;;;;;58.17;30.52;;;17.20;99.20;;;;;;5036423;28;20080;-73
2022/08/18 05:26:51;;;;;;;62.78;30.60;;;17.30;99.20;;;;;;5022448;28;20105;-73
2022/08/18 05:29:17;;;;;;;53.33;29.67;;;17.20;99.20;;;;;;5013030;28;20026;-73
2022/08/18 05:31:44;;;;;;;53.55;30.40;;;17.30;99.30;;;;;;5012011;28;20480;-73
2022/08/18 05:34:09;;;;;;;71.38;32.97;;;17.40;99.40;;;;;;5032700;28;20386;-73
2022/08/18 05:36:45;;;;;;;67.00;34.95;;;17.40;99.30;;;;;;5029604;28;20031;-73
2022/08/18 05:39:20;;;;;;;71.57;33.92;;;17.40;99.40;;;;;;5027108;28;20197;-73
2022/08/18 05:41:51;;;;;;;68.97;35.40;;;17.40;99.30;;;;;;5034346;28;20191;-73
2022/08/18 05:44:33;;;;;;;78.35;36.53;;;17.40;99.40;;;;;;5030227;28;20083;-73
2022/08/18 05:47:30;;;;;;;82.22;37.20;;;17.50;99.50;;;;;;5030334;28;20375;-74
2022/08/18 05:50:01;;;;;;;80.78;37.17;;;17.50;99.60;;;;;;5025697;28;20333;-73
2022/08/18 05:52:37;;;;;;;79.80;38.80;;;17.50;99.50;;;;;;5024779;28;20083;-73
2022/08/18 05:58:04;;;;;;;66.03;36.78;;;17.50;99.50;;;;;;5037182;28;20071;-73
2022/08/18 06:00:31;;;;;;;79.68;38.35;;;17.50;99.60;;;;;;5031479;28;20025;-73
2022/08/18 06:03:20;;;;;;;73.28;37.03;;;17.60;99.60;;;;;;5036408;28;20021;-73
2022/08/18 06:05:53;;;;;;;75.60;37.75;;;17.60;99.60;;;;;;5019998;28;20406;-73
2022/08/18 06:08:22;;;;;;;81.57;39.22;;;17.60;99.60;;;;;;5037308;28;20033;-73
2022/08/18 06:10:49;;;;;;;81.90;40.58;;;17.60;99.60;;;;;;5040285;28;20120;-73
2022/08/18 06:13:17;;;;;;;95.95;40.50;;;17.60;99.70;;;;;;5031191;28;20148;-73
2022/08/18 06:16:08;;;;;;;86.47;39.28;;;17.60;99.60;;;;;;5027992;28;20026;-73
2022/08/18 06:18:52;;;;;;;;;;;17.60;99.70;;;;;;5038530;28;20444;-73
2022/08/18 06:21:49;;;;;;;81.85;36.50;;;17.70;99.60;;;;;;5035909;28;19995;-73
2022/08/18 06:24:50;;;;;;;97.75;42.35;;;17.70;99.70;;;;;;5031978;28;20025;-73
2022/08/18 06:27:39;;;;;;;102.50;42.50;;;17.80;99.80;;;;;;5033980;28;20113;-73
2022/08/18 06:30:23;;;;;;;100.95;42.95;;;17.70;99.80;;;;;;5033751;28;20349;-73
2022/08/18 06:33:11;;;;;;;104.25;43.85;;;17.70;99.70;;;;;;5044429;28;20041;-73
2022/08/18 06:35:50;;;;;;;109.72;44.80;;;17.70;99.80;;;;;;5042943;28;20551;-73
2022/08/18 06:38:46;;;;;;;107.95;45.60;;;17.80;99.80;;;;;;5034567;28;20044;-73
2022/08/18 06:41:33;;;;;;;112.60;47.33;;;17.80;99.80;;;;;;5038948;28;20025;-73
2022/08/18 06:44:09;;;;;;;108.65;47.17;;;17.90;99.80;;;;;;5045268;28;20088;-73
2022/08/18 06:46:42;;;;;;;119.95;48.95;;;17.90;99.80;;;;;;5027409;28;20447;-73
2022/08/18 06:49:11;;;;;;;117.55;46.78;;;18.00;99.90;;;;;;5028266;28;20100;-73
2022/08/18 06:51:37;;;;;;;118.82;49.13;;;18.00;99.90;;;;;;5030208;28;20025;-73
2022/08/18 06:54:04;;;;;;;110.75;44.42;;;18.00;99.80;;;;;;5040043;28;20032;-73
2022/08/18 06:56:38;;;;;;;100.00;42.40;;;18.00;99.70;;;;;;5027125;28;20437;-73
2022/08/18 06:59:21;;;;;;;96.43;42.00;;;18.00;99.80;;;;;;5037262;28;20406;-73
2022/08/18 07:01:52;;;;;;;78.28;37.78;;;18.10;99.70;;;;;;5031358;28;20037;-73
2022/08/18 07:04:36;;;;;;;82.70;38.70;;;18.10;99.60;;;;;;5023612;28;20080;-73
2022/08/18 07:07:38;;;;;;;85.25;38.05;;;18.10;99.70;;;;;;5028739;28;20712;-73
2022/08/18 07:10:06;;;;;;;78.47;38.78;;;18.20;99.70;;;;;;5021352;28;20461;-73
2022/08/18 07:12:32;;;;;;;81.20;39.42;;;18.10;99.50;;;;;;5034252;28;20016;-73
2022/08/18 07:15:01;;;;;;;84.57;39.00;;;18.20;99.70;;;;;;5025260;28;20036;-74
2022/08/18 07:17:31;;;;;;;82.60;39.70;;;18.30;99.60;;;;;;5036457;28;20053;-71
2022/08/18 07:20:22;;;;;;;86.43;40.78;;;18.30;99.60;;;;;;5033932;28;20485;-71
2022/08/18 07:22:59;;;;;;;81.50;40.33;;;18.30;99.50;;;;;;5024110;28;20056;-73
2022/08/18 07:25:30;;;;;;;80.22;40.85;;;18.40;99.60;;;;;;5034161;28;20337;-73
2022/08/18 07:28:00;;;;;;;85.35;40.80;;;18.50;99.60;;;;;;5031873;28;20105;-73
2022/08/18 07:30:32;;;;;;;83.78;40.58;;;18.60;99.50;;;;;;5039348;28;20032;-73
2022/08/18 07:33:17;;;;;;;76.03;40.20;;;18.60;99.40;;;;;;5035765;28;20067;-73
2022/08/18 07:35:59;;;;;;;69.32;38.25;;;18.60;99.20;;;;;;5031442;28;20060;-73
2022/08/18 07:38:38;;;;;;;75.90;39.00;;;18.60;99.10;;;;;;5034897;28;20107;-73
2022/08/18 07:41:20;;;;;;;72.38;37.53;;;18.80;99.30;;;;;;5031637;28;20030;-74
2022/08/18 07:43:51;;;;;;;66.85;37.35;;;18.90;99.00;;;;;;5034947;28;20025;-74
2022/08/18 07:46:37;;;;;;;;;;;19.00;99.10;;;;;;5037207;28;20035;-73
2022/08/18 07:49:03;;;;;;;63.88;34.97;;;19.00;98.80;;;;;;5026624;28;19912;-73
2022/08/18 07:51:44;;;;;;;71.00;37.33;;;18.90;98.50;;;;;;5035048;28;20028;-73
2022/08/18 07:54:21;;;;;;;62.58;36.05;;;19.00;98.50;;;;;;5038247;28;20029;-73
2022/08/18 07:57:16;;;;;;;67.72;34.58;;;19.00;98.40;;;;;;5037955;28;20170;-74
2022/08/18 07:59:49;;;;;;;60.72;34.72;;;19.10;98.20;;;;;;5033017;28;20352;-73
2022/08/18 08:02:35;;;;;;;57.58;34.92;;;19.20;98.20;;;;;;5042793;28;20398;-74
2022/08/18 08:05:51;;;;;;;54.60;32.00;;;19.30;97.90;;;;;;5026500;28;20029;-74
2022/08/18 08:08:29;;;;;;;50.88;31.55;;;19.40;97.70;;;;;;5021488;28;20468;-74
2022/08/18 08:11:19;;;;;;;51.38;32.03;;;19.50;97.30;;;;;;5028684;28;20037;-74
2022/08/18 08:14:16;;;;;;;51.17;31.37;;;19.60;97.20;;;;;;5035639;28;20436;-74
2022/08/18 08:16:49;;;;;;;52.70;31.05;;;19.90;97.10;;;;;;5030379;28;20031;-74
2022/08/18 08:19:44;;;;;;;44.05;28.48;;;20.00;96.50;;;;;;5029937;28;20041;-74
2022/08/18 08:22:19;;;;;;;42.30;27.95;;;20.00;95.70;;;;;;5021518;28;20474;-74
2022/08/18 08:25:04;;;;;;;44.97;28.75;;;20.10;95.70;;;;;;5021684;28;20507;-74
2022/08/18 08:27:48;;;;;;;42.53;27.52;;;20.40;95.70;;;;;;5023191;28;20041;-71
2022/08/18 08:30:17;;;;;;;35.08;25.45;;;20.50;95.10;;;;;;5030857;28;20026;-72
2022/08/18 08:33:20;;;;;;;35.47;25.88;;;20.40;93.70;;;;;;5025039;28;20462;-71
2022/08/18 08:36:02;;;;;;;36.05;25.42;;;20.50;94.40;;;;;;5021983;28;20080;-71
2022/08/18 08:38:45;;;;;;;37.10;25.27;;;20.70;93.70;;;;;;5019060;28;20070;-71
2022/08/18 08:41:31;;;;;;;34.70;24.85;;;20.70;93.10;;;;;;5030557;28;20441;-72
2022/08/18 08:44:41;;;;;;;33.25;22.38;;;20.80;92.70;;;;;;5027289;28;20026;-72
2022/08/18 08:47:15;;;;;;;36.28;25.60;;;21.00;91.80;;;;;;5004639;28;20033;-72
2022/08/18 08:49:44;;;;;;;38.72;24.45;;;21.40;92.30;;;;;;4997281;28;20125;-72
2022/08/18 08:52:23;;;;;;;29.88;22.10;;;21.60;91.90;;;;;;5007697;28;20041;-72
2022/08/18 08:54:55;;;;;;;32.42;22.95;;;21.60;90.00;;;;;;5016802;28;20446;-72
2022/08/18 08:57:26;;;;;;;30.27;22.85;;;21.90;89.70;;;;;;5031279;28;20373;-72
2022/08/18 08:59:55;;;;;;;30.77;21.67;;;21.90;89.20;;;;;;5032904;28;20448;-72
2022/08/18 09:02:30;;;;;;;28.83;21.95;;;22.10;89.30;;;;;;5036377;28;20086;-72
2022/08/18 09:05:04;;;;;;;26.25;19.40;;;22.50;88.50;;;;;;5018183;28;20049;-72
2022/08/18 09:07:52;;;;;;;25.63;18.63;;;22.50;87.10;;;;;;5015470;28;20450;-72
2022/08/18 09:11:02;;;;;;;24.95;18.00;;;22.50;86.50;;;;;;5023072;28;20013;-73
2022/08/18 09:13:56;;;;;;;26.05;17.65;;;22.00;86.40;;;;;;5036051;28;20032;-72
2022/08/18 09:17:01;;;;;;;22.92;18.15;;;22.10;87.30;;;;;;5036051;28;20039;-72
2022/08/18 09:19:39;;;;;;;26.55;18.95;;;22.50;86.80;;;;;;5026570;28;20245;-72
2022/08/18 09:22:23;;;;;;;22.45;18.13;;;22.50;85.50;;;;;;5037788;28;20128;-73
2022/08/18 09:24:52;;;;;;;26.48;19.00;;;22.70;86.20;;;;;;5032008;28;20021;-73
2022/08/18 09:27:43;;;;;;;22.45;17.85;;;22.50;85.30;;;;;;5031131;28;20032;-72
2022/08/18 09:30:38;;;;;;;24.73;18.35;;;22.40;85.00;;;;;;5035781;28;20029;-72
2022/08/18 09:33:26;;;;;;;21.75;17.50;;;22.20;85.80;;;;;;5023467;28;20060;-72
2022/08/18 09:36:37;;;;;;;27.90;19.15;;;22.30;86.20;;;;;;5027788;28;20021;-72
2022/08/18 09:42:05;;;;;;;21.77;16.75;;;22.40;85.80;;;;;;5028381;28;20291;-74
2022/08/18 09:45:00;;;;;;;23.75;17.25;;;22.50;86.00;;;;;;5025853;28;20029;-74
2022/08/18 09:47:26;;;;;;;21.30;15.52;;;22.50;84.60;;;;;;5022382;28;20388;-74
2022/08/18 09:49:54;;;;;;;21.15;15.43;;;22.50;84.60;;;;;;5039359;28;20029;-74
2022/08/18 09:52:19;;;;;;;21.52;16.63;;;22.50;85.20;;;;;;5025807;28;20148;-72
2022/08/18 09:54:58;;;;;;;20.52;16.90;;;22.50;84.90;;;;;;5030330;28;20117;-72
2022/08/18 09:57:35;;;;;;;21.08;14.75;;;22.80;85.20;;;;;;5031686;28;20283;-75
2022/08/18 10:00:05;;;;;;;20.13;14.73;;;23.00;83.60;;;;;;5031585;28;20041;-75
2022/08/18 10:02:31;;;;;;;18.38;14.38;;;23.00;83.10;;;;;;5033816;28;20017;-72
2022/08/18 10:05:18;;;;;;;20.58;14.38;;;22.90;83.00;;;;;;5029957;28;20033;-72
2022/08/18 10:08:15;;;;;;;17.48;13.75;;;23.10;82.70;;;;;;5035860;28;20053;-72
2022/08/18 10:10:53;;;;;;;18.60;14.63;;;23.20;81.50;;;;;;5020492;28;20021;-72
2022/08/18 10:13:37;;;;;;;20.52;13.65;;;23.50;80.30;;;;;;5033143;28;20373;-72
2022/08/18 10:16:14;;;;;;;17.10;13.32;;;23.40;82.10;;;;;;5030331;28;20396;-72
2022/08/18 10:18:55;;;;;;;16.98;12.75;;;23.80;80.80;;;;;;5029877;28;20041;-72
2022/08/18 10:21:27;;;;;;;18.30;13.07;;;24.10;80.30;;;;;;5024453;28;20330;-72
2022/08/18 10:24:05;;;;;;;17.52;13.02;;;24.10;78.70;;;;;;5031844;28;20071;-72
2022/08/18 10:26:30;;;;;;;17.23;12.13;;;24.00;78.70;;;;;;5033020;28;20029;-72
2022/08/18 10:29:03;;;;;;;15.32;11.80;;;24.00;79.40;;;;;;5033501;28;20097;-72
2022/08/18 10:31:50;;;;;;;19.00;12.70;;;23.90;78.50;;;;;;5032315;28;20021;-72
2022/08/18 10:34:37;;;;;;;17.80;12.50;;;23.60;79.20;;;;;;5028630;28;20037;-72
2022/08/18 10:37:16;;;;;;;14.25;12.05;;;23.50;79.20;;;;;;5025991;28;20447;-72
2022/08/18 10:39:45;;;;;;;18.25;12.93;;;23.50;79.60;;;;;;5029236;28;20072;-73
2022/08/18 10:42:24;;;;;;;17.42;13.07;;;23.40;80.50;;;;;;5026733;28;20091;-72
2022/08/18 10:44:57;;;;;;;16.38;12.52;;;23.30;80.30;;;;;;5026779;28;20551;-73
2022/08/18 10:47:26;;;;;;;17.38;11.88;;;23.50;80.80;;;;;;5033769;28;20105;-73
2022/08/18 10:49:52;;;;;;;19.10;12.93;;;23.80;80.90;;;;;;5022628;28;20026;-72
2022/08/18 10:52:18;;;;;;;13.27;11.32;;;24.00;78.60;;;;;;5035154;28;20028;-73
2022/08/18 10:55:06;;;;;;;13.57;11.15;;;24.10;77.90;;;;;;5033565;28;20466;-73
2022/08/18 10:57:59;;;;;;;14.10;10.38;;;24.60;74.70;;;;;;5025094;28;20115;-72
2022/08/18 11:00:55;;;;;;;12.05;9.57;;;24.60;73.80;;;;;;5029780;28;20038;-72
2022/08/18 11:03:58;;;;;;;13.50;8.77;;;25.00;73.90;;;;;;5021845;28;20029;-72
2022/08/18 11:06:25;;;;;;;13.70;9.27;;;25.50;71.30;;;;;;5023481;28;20022;-72
2022/08/18 11:08:53;;;;;;;13.35;9.80;;;25.50;71.20;;;;;;5021767;28;20025;-73
2022/08/18 11:11:23;;;;;;;15.02;8.98;;;25.60;72.60;;;;;;5027591;28;20435;-72
2022/08/18 11:14:22;;;;;;;13.17;9.83;;;25.50;70.40;;;;;;5033255;28;20025;-73
2022/08/18 11:16:55;;;;;;;12.68;9.35;;;26.10;70.40;;;;;;5021468;28;20021;-73
2022/08/18 11:19:21;;;;;;;12.02;9.20;;;26.90;70.80;;;;;;5044361;28;20037;-73
2022/08/18 11:21:49;;;;;;;13.40;8.65;;;27.20;68.50;;;;;;5034253;28;20440;-73
2022/08/18 11:24:30;;;;;;;14.77;9.00;;;26.80;67.30;;;;;;5028753;28;20050;-73
2022/08/18 11:27:00;;;;;;;13.80;10.13;;;26.30;67.80;;;;;;5035465;28;20105;-73
2022/08/18 11:29:32;;;;;;;14.27;10.63;;;25.90;70.50;;;;;;5028799;28;20026;-74
2022/08/18 11:32:04;;;;;;;13.88;10.30;;;25.90;71.30;;;;;;5033015;28;20040;-73
2022/08/18 11:34:41;;;;;;;12.77;9.02;;;27.00;69.50;;;;;;5032992;28;20033;-73
2022/08/18 11:37:25;;;;;;;14.10;10.40;;;26.80;65.60;;;;;;5029750;28;20574;-73
2022/08/18 11:39:53;;;;;;;12.57;9.77;;;26.50;67.90;;;;;;5029140;28;20026;-74
2022/08/18 11:42:26;;;;;;;14.90;10.18;;;27.50;67.80;;;;;;5020953;28;20421;-74
2022/08/18 11:45:10;;;;;;;12.75;8.85;;;27.40;64.90;;;;;;5022914;28;20536;-74
2022/08/18 11:47:37;;;;;;;11.75;8.60;;;27.80;62.30;;;;;;5022566;28;20025;-74
2022/08/18 11:50:10;;;;;;;14.15;9.00;;;27.20;63.60;;;;;;5021967;28;20523;-74
2022/08/18 11:52:50;;;;;;;11.98;8.65;;;27.50;62.60;;;;;;5019672;28;20064;-74
2022/08/18 11:55:27;;;;;;;13.63;9.60;;;27.10;63.40;;;;;;5018841;28;20033;-74
2022/08/18 11:57:55;;;;;;;11.13;9.00;;;27.50;64.30;;;;;;5019031;28;20033;-74
2022/08/18 12:00:54;;;;;;;12.40;8.13;;;27.00;65.60;;;;;;5020325;28;20033;-74
2022/08/18 12:03:49;;;;;;;11.30;8.00;;;26.90;65.30;;;;;;5020691;28;20118;-73
2022/08/18 12:06:30;;;;;;;9.35;7.45;;;27.70;62.10;;;;;;5018255;28;20129;-72
2022/08/18 12:09:28;;;;;;;10.52;7.65;;;28.00;60.80;;;;;;5022894;28;20088;-74
2022/08/18 12:11:56;;;;;;;10.27;7.30;;;28.20;62.00;;;;;;5023442;28;20053;-73
2022/08/18 12:14:25;;;;;;;9.93;6.15;;;28.50;60.00;;;;;;5020975;28;20048;-74
2022/08/18 12:16:51;;;;;;;10.27;6.05;;;28.80;58.70;;;;;;5021238;28;20060;-74
2022/08/18 12:19:16;;;;;;;9.27;6.53;;;29.20;58.10;;;;;;5022503;28;20138;-74
2022/08/18 12:21:49;;;;;;;8.25;5.65;;;29.10;57.40;;;;;;5021213;28;20033;-74
2022/08/18 12:24:24;;;;;;;8.57;6.00;;;29.60;57.50;;;;;;5019845;28;20447;-74
2022/08/18 12:26:50;;;;;;;9.18;5.82;;;29.30;56.20;;;;;;5020108;28;20041;-73
2022/08/18 12:29:17;;;;;;;10.23;6.63;;;29.30;57.00;;;;;;5021806;28;20048;-74
2022/08/18 12:31:44;;;;;;;7.65;5.38;;;29.50;56.40;;;;;;5022446;28;20026;-73
2022/08/18 12:34:09;;;;;;;9.30;6.22;;;28.50;58.40;;;;;;5019410;28;20403;-73
2022/08/18 12:36:35;;;;;;;11.15;5.70;;;28.50;58.10;;;;;;5022567;28;20052;-73
2022/08/18 12:39:01;;;;;;;8.77;5.78;;;28.90;56.70;;;;;;5021249;28;20134;-73
2022/08/18 12:41:27;;;;;;;9.30;6.35;;;28.90;56.30;;;;;;5023766;28;20954;-73
2022/08/18 12:43:52;;;;;;;11.15;6.35;;;28.70;57.30;;;;;;5022287;28;20395;-73
2022/08/18 12:46:19;;;;;;;7.13;5.32;;;28.00;58.70;;;;;;5021310;28;20503;-73
2022/08/18 12:48:45;;;;;;;9.57;6.45;;;29.20;58.80;;;;;;5021158;28;20026;-74
2022/08/18 12:51:12;;;;;;;7.93;5.32;;;29.60;56.20;;;;;;5022388;28;20346;-73
2022/08/18 12:53:38;;;;;;;9.18;5.40;;;29.60;55.90;;;;;;5019978;28;20052;-74
2022/08/18 12:56:24;;;;;;;10.02;5.60;;;30.20;55.10;;;;;;5022469;28;20397;-73
2022/08/18 12:58:51;;;;;;;7.22;5.40;;;30.70;53.60;;;;;;5020773;28;20143;-73
2022/08/18 13:01:18;;;;;;;11.45;5.70;;;30.50;53.10;;;;;;5021583;28;20051;-73
2022/08/18 13:03:45;;;;;;;8.30;5.65;;;29.70;54.60;;;;;;5020140;28;20112;-73
2022/08/18 13:06:11;;;;;;;7.43;5.10;;;30.30;54.00;;;;;;5020649;28;20018;-73
2022/08/18 13:08:37;;;;;;;8.10;5.28;;;30.80;53.90;;;;;;5020852;28;20045;-73
2022/08/18 13:11:04;;;;;;;9.70;6.35;;;31.40;51.90;;;;;;5023097;28;20083;-74
2022/08/18 13:13:30;;;;;;;7.97;5.28;;;31.00;52.30;;;;;;5018935;28;20442;-74
2022/08/18 13:15:55;;;;;;;8.48;5.43;;;30.80;52.80;;;;;;5023344;28;20041;-74
2022/08/18 13:18:21;;;;;;;8.05;6.45;;;31.30;51.10;;;;;;5019754;28;20137;-73
2022/08/18 13:20:47;;;;;;;9.20;5.70;;;31.10;50.70;;;;;;5022350;28;20021;-73